Thunderbolt, Georgia
Current Conditions -  °F | °C
As of 1:58 PM on Thursday 27 Nov 2014 (Local Time) from KSVN Reporting Station
Clear Clear  
Wind Chill: 57°   Ceiling: Unl
Heat Index: 57°   Visibility: 10mi
Dew Point: 30°   Wind: 24mph
Humidity: 36%   Direction: 290°WNW
Pressure: 30.13"   Gusts: 31mph
Location:  31.996°N, 80.9671°W
Report Text: KSVN 271858Z AUTO 29021G27KT 10SM CLR 14/M01 A3013 RMK AO2 PK WND 28029/16 SLP206 T01391012
Loading
Personal Weather Stations






























Interactive Weather Map New forecast layout! Learn more

10-Day Weather Forecast

Advertisements
Track Severe Weather on mobile